< < Back
Terminal Aerodrome Forecast


Current Version              Previous Versions:   1  2  3  4  5  6  7  8  9  

Terminal Aerodrome Forecast

312
FTUS44 KMOB 251127
TAFPNS
TAF
KPNS 251127Z 2512/2612 03005KT P6SM FEW250
     FM251500 08009KT P6SM SCT070 SCT250
     FM252100 10010KT P6SM FEW250
     FM260300 07003KT P6SM FEW250=

Latest METAR

683
SAUS70 KWBC 260600 RRM
MTRPNS
METAR KPNS 260553Z AUTO 01003KT 10SM CLR 26/23 A3005 RMK AO2 SLP176
T02560228 10311 20256 403390256 58004


USA.gov is the U.S. government's official web portal to all federal, state and local government web resources and services.